sensor_id;sensor_type;location;lat;lon;timestamp;temperature;humidity
75430;DHT22;64127;51.488;5.462;2023-04-03T00:01:14;5.50;99.90
75430;DHT22;64127;51.488;5.462;2023-04-03T00:03:46;5.50;99.90
75430;DHT22;64127;51.488;5.462;2023-04-03T00:06:18;5.50;99.90
75430;DHT22;64127;51.488;5.462;2023-04-03T00:08:51;5.40;99.90
75430;DHT22;64127;51.488;5.462;2023-04-03T00:11:23;5.40;99.90
75430;DHT22;64127;51.488;5.462;2023-04-03T00:13:55;5.40;99.90
75430;DHT22;64127;51.488;5.462;2023-04-03T00:16:27;5.40;99.90
75430;DHT22;64127;51.488;5.462;2023-04-03T00:18:59;5.40;99.90
75430;DHT22;64127;51.488;5.462;2023-04-03T00:21:31;5.30;99.90
75430;DHT22;64127;51.488;5.462;2023-04-03T00:24:04;5.30;99.90
75430;DHT22;64127;51.488;5.462;2023-04-03T00:26:36;5.30;99.90
75430;DHT22;64127;51.488;5.462;2023-04-03T00:29:08;5.30;99.90
75430;DHT22;64127;51.488;5.462;2023-04-03T00:31:40;5.20;99.90
75430;DHT22;64127;51.488;5.462;2023-04-03T00:34:12;5.20;99.90
75430;DHT22;64127;51.488;5.462;2023-04-03T00:36:44;5.20;99.90
75430;DHT22;64127;51.488;5.462;2023-04-03T00:39:17;5.20;99.90
75430;DHT22;64127;51.488;5.462;2023-04-03T00:41:49;5.20;99.90
75430;DHT22;64127;51.488;5.462;2023-04-03T00:47:07;5.20;99.90
75430;DHT22;64127;51.488;5.462;2023-04-03T00:49:43;5.20;99.90
75430;DHT22;64127;51.488;5.462;2023-04-03T00:52:18;5.20;99.90
75430;DHT22;64127;51.488;5.462;2023-04-03T00:54:54;5.10;99.90
75430;DHT22;64127;51.488;5.462;2023-04-03T00:57:31;5.10;99.90
75430;DHT22;64127;51.488;5.462;2023-04-03T01:00:10;5.10;99.90
75430;DHT22;64127;51.488;5.462;2023-04-03T01:02:44;5.00;99.90
75430;DHT22;64127;51.488;5.462;2023-04-03T01:05:17;5.00;99.90
75430;DHT22;64127;51.488;5.462;2023-04-03T01:07:52;5.00;99.90
75430;DHT22;64127;51.488;5.462;2023-04-03T01:10:25;5.00;99.90
75430;DHT22;64127;51.488;5.462;2023-04-03T01:12:57;5.00;99.90
75430;DHT22;64127;51.488;5.462;2023-04-03T01:15:31;5.00;99.90
75430;DHT22;64127;51.488;5.462;2023-04-03T01:18:10;5.00;99.90
75430;DHT22;64127;51.488;5.462;2023-04-03T01:26:46;4.90;99.90
75430;DHT22;64127;51.488;5.462;2023-04-03T01:29:20;4.90;99.90
75430;DHT22;64127;51.488;5.462;2023-04-03T01:31:57;4.80;99.90
75430;DHT22;64127;51.488;5.462;2023-04-03T01:34:30;4.80;99.90
75430;DHT22;64127;51.488;5.462;2023-04-03T01:37:03;4.80;99.90
75430;DHT22;64127;51.488;5.462;2023-04-03T01:39:35;4.80;99.90
75430;DHT22;64127;51.488;5.462;2023-04-03T01:42:07;4.80;99.90
75430;DHT22;64127;51.488;5.462;2023-04-03T01:44:39;4.70;99.90
75430;DHT22;64127;51.488;5.462;2023-04-03T01:47:11;4.70;99.90
75430;DHT22;64127;51.488;5.462;2023-04-03T01:49:43;4.70;99.90
75430;DHT22;64127;51.488;5.462;2023-04-03T01:52:14;4.70;99.90
75430;DHT22;64127;51.488;5.462;2023-04-03T01:54:46;4.70;99.90
75430;DHT22;64127;51.488;5.462;2023-04-03T01:57:18;4.70;99.90
75430;DHT22;64127;51.488;5.462;2023-04-03T01:59:50;4.70;99.90
75430;DHT22;64127;51.488;5.462;2023-04-03T02:02:22;4.70;99.90
75430;DHT22;64127;51.488;5.462;2023-04-03T02:04:55;4.70;99.90
75430;DHT22;64127;51.488;5.462;2023-04-03T02:07:26;4.60;99.90
75430;DHT22;64127;51.488;5.462;2023-04-03T02:09:58;4.70;99.90
75430;DHT22;64127;51.488;5.462;2023-04-03T02:12:30;4.60;99.90
75430;DHT22;64127;51.488;5.462;2023-04-03T02:15:03;4.60;99.90
75430;DHT22;64127;51.488;5.462;2023-04-03T02:17:35;4.60;99.90
75430;DHT22;64127;51.488;5.462;2023-04-03T02:20:08;4.60;99.90
75430;DHT22;64127;51.488;5.462;2023-04-03T02:22:41;4.50;99.90
75430;DHT22;64127;51.488;5.462;2023-04-03T02:25:13;4.60;99.90
75430;DHT22;64127;51.488;5.462;2023-04-03T02:27:46;4.60;99.90
75430;DHT22;64127;51.488;5.462;2023-04-03T02:30:18;4.50;99.90
75430;DHT22;64127;51.488;5.462;2023-04-03T02:32:50;4.50;99.90
75430;DHT22;64127;51.488;5.462;2023-04-03T02:35:22;4.50;99.90
75430;DHT22;64127;51.488;5.462;2023-04-03T02:37:54;4.50;99.90
75430;DHT22;64127;51.488;5.462;2023-04-03T02:40:27;4.50;99.90
75430;DHT22;64127;51.488;5.462;2023-04-03T02:42:59;4.50;99.90
75430;DHT22;64127;51.488;5.462;2023-04-03T02:45:31;4.40;99.90
75430;DHT22;64127;51.488;5.462;2023-04-03T02:48:03;4.50;99.90
75430;DHT22;64127;51.488;5.462;2023-04-03T02:50:37;4.50;99.90
75430;DHT22;64127;51.488;5.462;2023-04-03T02:53:09;4.40;99.90
75430;DHT22;64127;51.488;5.462;2023-04-03T02:55:41;4.40;99.90
75430;DHT22;64127;51.488;5.462;2023-04-03T02:58:13;4.40;99.90
75430;DHT22;64127;51.488;5.462;2023-04-03T03:00:45;4.40;99.90
75430;DHT22;64127;51.488;5.462;2023-04-03T03:03:17;4.40;99.90
75430;DHT22;64127;51.488;5.462;2023-04-03T03:05:49;4.40;99.90
75430;DHT22;64127;51.488;5.462;2023-04-03T03:08:21;4.40;99.90
75430;DHT22;64127;51.488;5.462;2023-04-03T03:10:53;4.40;99.90
75430;DHT22;64127;51.488;5.462;2023-04-03T03:13:26;4.40;99.90
75430;DHT22;64127;51.488;5.462;2023-04-03T03:15:58;4.30;99.90
75430;DHT22;64127;51.488;5.462;2023-04-03T03:18:31;4.40;99.90
75430;DHT22;64127;51.488;5.462;2023-04-03T03:21:04;4.30;99.90
75430;DHT22;64127;51.488;5.462;2023-04-03T03:23:36;4.30;99.90
75430;DHT22;64127;51.488;5.462;2023-04-03T03:26:09;4.30;99.90
75430;DHT22;64127;51.488;5.462;2023-04-03T03:28:42;4.30;99.90
75430;DHT22;64127;51.488;5.462;2023-04-03T03:31:14;4.30;99.90
75430;DHT22;64127;51.488;5.462;2023-04-03T03:33:47;4.30;99.90
75430;DHT22;64127;51.488;5.462;2023-04-03T03:36:18;4.30;99.90
75430;DHT22;64127;51.488;5.462;2023-04-03T03:38:51;4.30;99.90
75430;DHT22;64127;51.488;5.462;2023-04-03T03:41:23;4.30;99.90
75430;DHT22;64127;51.488;5.462;2023-04-03T03:43:55;4.30;99.90
75430;DHT22;64127;51.488;5.462;2023-04-03T03:46:27;4.30;99.90
75430;DHT22;64127;51.488;5.462;2023-04-03T03:48:59;4.20;99.90
75430;DHT22;64127;51.488;5.462;2023-04-03T03:51:31;4.30;99.90
75430;DHT22;64127;51.488;5.462;2023-04-03T03:54:04;4.30;99.90
75430;DHT22;64127;51.488;5.462;2023-04-03T03:56:36;4.30;99.90
75430;DHT22;64127;51.488;5.462;2023-04-03T03:59:10;4.30;99.90
75430;DHT22;64127;51.488;5.462;2023-04-03T04:01:44;4.30;99.90
75430;DHT22;64127;51.488;5.462;2023-04-03T04:04:16;4.30;99.90
75430;DHT22;64127;51.488;5.462;2023-04-03T04:06:48;4.30;99.90
75430;DHT22;64127;51.488;5.462;2023-04-03T04:09:20;4.20;99.90
75430;DHT22;64127;51.488;5.462;2023-04-03T04:11:53;4.20;99.90
75430;DHT22;64127;51.488;5.462;2023-04-03T04:14:25;4.20;99.90
75430;DHT22;64127;51.488;5.462;2023-04-03T04:16:58;4.20;99.90
75430;DHT22;64127;51.488;5.462;2023-04-03T04:19:30;4.20;99.90
75430;DHT22;64127;51.488;5.462;2023-04-03T04:22:02;4.10;99.90
75430;DHT22;64127;51.488;5.462;2023-04-03T04:24:34;4.20;99.90
75430;DHT22;64127;51.488;5.462;2023-04-03T04:27:08;4.10;99.90
75430;DHT22;64127;51.488;5.462;2023-04-03T04:29:40;4.10;99.90
75430;DHT22;64127;51.488;5.462;2023-04-03T04:32:12;4.00;99.90
75430;DHT22;64127;51.488;5.462;2023-04-03T04:34:44;4.00;99.90
75430;DHT22;64127;51.488;5.462;2023-04-03T04:37:16;4.00;99.90
75430;DHT22;64127;51.488;5.462;2023-04-03T04:39:48;3.90;99.90
75430;DHT22;64127;51.488;5.462;2023-04-03T04:42:20;4.00;99.90
75430;DHT22;64127;51.488;5.462;2023-04-03T04:44:52;4.00;99.90
75430;DHT22;64127;51.488;5.462;2023-04-03T04:47:24;4.00;99.90
75430;DHT22;64127;51.488;5.462;2023-04-03T04:49:56;4.00;99.90
75430;DHT22;64127;51.488;5.462;2023-04-03T04:52:27;3.90;99.90
75430;DHT22;64127;51.488;5.462;2023-04-03T04:55:00;3.90;99.90
75430;DHT22;64127;51.488;5.462;2023-04-03T04:57:32;3.90;99.90
75430;DHT22;64127;51.488;5.462;2023-04-03T05:00:04;3.90;99.90
75430;DHT22;64127;51.488;5.462;2023-04-03T05:02:37;3.90;99.90
75430;DHT22;64127;51.488;5.462;2023-04-03T05:05:09;4.00;99.90
75430;DHT22;64127;51.488;5.462;2023-04-03T05:07:41;3.90;99.90
75430;DHT22;64127;51.488;5.462;2023-04-03T05:10:13;3.90;99.90
75430;DHT22;64127;51.488;5.462;2023-04-03T05:12:45;3.90;99.90
75430;DHT22;64127;51.488;5.462;2023-04-03T05:15:17;3.90;99.90
75430;DHT22;64127;51.488;5.462;2023-04-03T05:17:49;4.00;99.90
75430;DHT22;64127;51.488;5.462;2023-04-03T05:20:22;4.00;99.90
75430;DHT22;64127;51.488;5.462;2023-04-03T05:22:54;4.00;99.90
75430;DHT22;64127;51.488;5.462;2023-04-03T05:25:26;3.90;99.90
75430;DHT22;64127;51.488;5.462;2023-04-03T05:27:58;4.00;99.90
75430;DHT22;64127;51.488;5.462;2023-04-03T05:30:31;4.00;99.90
75430;DHT22;64127;51.488;5.462;2023-04-03T05:33:03;4.00;99.90
75430;DHT22;64127;51.488;5.462;2023-04-03T05:35:36;3.90;99.90
75430;DHT22;64127;51.488;5.462;2023-04-03T05:38:12;4.00;99.90
75430;DHT22;64127;51.488;5.462;2023-04-03T05:40:44;4.00;99.90
75430;DHT22;64127;51.488;5.462;2023-04-03T05:43:16;3.90;99.90
75430;DHT22;64127;51.488;5.462;2023-04-03T05:45:48;3.90;99.90
75430;DHT22;64127;51.488;5.462;2023-04-03T05:48:20;3.90;99.90
75430;DHT22;64127;51.488;5.462;2023-04-03T05:50:52;4.00;99.90
75430;DHT22;64127;51.488;5.462;2023-04-03T05:53:29;3.90;99.90
75430;DHT22;64127;51.488;5.462;2023-04-03T05:56:04;3.90;99.90
75430;DHT22;64127;51.488;5.462;2023-04-03T05:58:36;3.90;99.90
75430;DHT22;64127;51.488;5.462;2023-04-03T06:01:09;3.90;99.90
75430;DHT22;64127;51.488;5.462;2023-04-03T06:03:41;4.00;99.90
75430;DHT22;64127;51.488;5.462;2023-04-03T06:06:14;4.10;99.90
75430;DHT22;64127;51.488;5.462;2023-04-03T06:08:47;4.10;99.90
75430;DHT22;64127;51.488;5.462;2023-04-03T06:11:19;4.20;99.90
75430;DHT22;64127;51.488;5.462;2023-04-03T06:13:50;4.30;99.90
75430;DHT22;64127;51.488;5.462;2023-04-03T06:16:22;4.40;99.90
75430;DHT22;64127;51.488;5.462;2023-04-03T06:18:54;4.50;99.90
75430;DHT22;64127;51.488;5.462;2023-04-03T06:21:27;4.60;99.90
75430;DHT22;64127;51.488;5.462;2023-04-03T06:24:00;4.70;99.90
75430;DHT22;64127;51.488;5.462;2023-04-03T06:26:32;4.80;99.90
75430;DHT22;64127;51.488;5.462;2023-04-03T06:29:05;4.90;99.90
75430;DHT22;64127;51.488;5.462;2023-04-03T06:31:37;5.00;99.90
75430;DHT22;64127;51.488;5.462;2023-04-03T06:34:09;5.10;99.90
75430;DHT22;64127;51.488;5.462;2023-04-03T06:36:42;5.20;99.90
75430;DHT22;64127;51.488;5.462;2023-04-03T06:39:17;5.30;99.90
75430;DHT22;64127;51.488;5.462;2023-04-03T06:41:52;5.40;99.90
75430;DHT22;64127;51.488;5.462;2023-04-03T06:44:24;5.50;99.90
75430;DHT22;64127;51.488;5.462;2023-04-03T06:46:56;5.60;99.90
75430;DHT22;64127;51.488;5.462;2023-04-03T06:49:28;5.70;99.90
75430;DHT22;64127;51.488;5.462;2023-04-03T06:52:00;5.80;99.90
75430;DHT22;64127;51.488;5.462;2023-04-03T06:54:33;5.90;99.90
75430;DHT22;64127;51.488;5.462;2023-04-03T06:57:07;5.90;99.90
75430;DHT22;64127;51.488;5.462;2023-04-03T06:59:39;6.00;99.90
75430;DHT22;64127;51.488;5.462;2023-04-03T07:02:12;6.10;99.90
75430;DHT22;64127;51.488;5.462;2023-04-03T07:04:44;6.20;99.90
75430;DHT22;64127;51.488;5.462;2023-04-03T07:07:16;6.30;99.90
75430;DHT22;64127;51.488;5.462;2023-04-03T07:09:49;6.40;99.90
75430;DHT22;64127;51.488;5.462;2023-04-03T07:12:21;6.60;99.90
75430;DHT22;64127;51.488;5.462;2023-04-03T07:14:53;6.70;99.90
75430;DHT22;64127;51.488;5.462;2023-04-03T07:17:25;6.80;99.90
75430;DHT22;64127;51.488;5.462;2023-04-03T07:19:57;7.00;99.90
75430;DHT22;64127;51.488;5.462;2023-04-03T07:22:29;7.10;99.90
75430;DHT22;64127;51.488;5.462;2023-04-03T07:25:03;7.20;99.90
75430;DHT22;64127;51.488;5.462;2023-04-03T07:27:36;7.30;99.90
75430;DHT22;64127;51.488;5.462;2023-04-03T07:30:08;7.40;99.90
75430;DHT22;64127;51.488;5.462;2023-04-03T07:32:41;7.40;99.90
75430;DHT22;64127;51.488;5.462;2023-04-03T07:35:13;7.60;99.90
75430;DHT22;64127;51.488;5.462;2023-04-03T07:37:45;7.70;99.90
75430;DHT22;64127;51.488;5.462;2023-04-03T07:40:17;7.80;99.90
75430;DHT22;64127;51.488;5.462;2023-04-03T07:42:51;7.90;99.90
75430;DHT22;64127;51.488;5.462;2023-04-03T07:45:24;8.00;99.90
75430;DHT22;64127;51.488;5.462;2023-04-03T07:47:56;8.10;99.90
75430;DHT22;64127;51.488;5.462;2023-04-03T07:50:29;8.20;99.90
75430;DHT22;64127;51.488;5.462;2023-04-03T07:53:03;8.40;99.90
75430;DHT22;64127;51.488;5.462;2023-04-03T07:55:35;8.50;99.90
75430;DHT22;64127;51.488;5.462;2023-04-03T07:58:16;8.60;99.90
75430;DHT22;64127;51.488;5.462;2023-04-03T08:00:49;8.70;99.90
75430;DHT22;64127;51.488;5.462;2023-04-03T08:03:22;8.70;99.90
75430;DHT22;64127;51.488;5.462;2023-04-03T08:05:54;8.80;99.90
75430;DHT22;64127;51.488;5.462;2023-04-03T08:08:26;8.90;99.90
75430;DHT22;64127;51.488;5.462;2023-04-03T08:11:01;9.00;99.90
75430;DHT22;64127;51.488;5.462;2023-04-03T08:13:34;9.10;99.90
75430;DHT22;64127;51.488;5.462;2023-04-03T08:16:09;9.20;99.60
75430;DHT22;64127;51.488;5.462;2023-04-03T08:18:43;9.40;99.40
75430;DHT22;64127;51.488;5.462;2023-04-03T08:21:15;9.50;98.90
75430;DHT22;64127;51.488;5.462;2023-04-03T08:23:49;9.60;98.20
75430;DHT22;64127;51.488;5.462;2023-04-03T08:26:22;9.60;97.90
75430;DHT22;64127;51.488;5.462;2023-04-03T08:28:54;9.60;97.60
75430;DHT22;64127;51.488;5.462;2023-04-03T08:31:27;9.60;97.20
75430;DHT22;64127;51.488;5.462;2023-04-03T08:33:59;9.60;96.70
75430;DHT22;64127;51.488;5.462;2023-04-03T08:36:31;9.70;96.70
75430;DHT22;64127;51.488;5.462;2023-04-03T08:39:03;9.70;96.30
75430;DHT22;64127;51.488;5.462;2023-04-03T08:41:38;9.80;96.20
75430;DHT22;64127;51.488;5.462;2023-04-03T08:49:54;10.20;94.40
75430;DHT22;64127;51.488;5.462;2023-04-03T09:00:51;10.40;92.30
75430;DHT22;64127;51.488;5.462;2023-04-03T09:03:36;10.50;91.60
75430;DHT22;64127;51.488;5.462;2023-04-03T09:06:31;10.60;91.50
75430;DHT22;64127;51.488;5.462;2023-04-03T09:09:12;10.80;90.90
75430;DHT22;64127;51.488;5.462;2023-04-03T09:12:20;10.90;90.40
75430;DHT22;64127;51.488;5.462;2023-04-03T09:15:10;11.00;89.60
75430;DHT22;64127;51.488;5.462;2023-04-03T09:18:20;11.10;88.10
75430;DHT22;64127;51.488;5.462;2023-04-03T09:24:18;11.30;77.20
75430;DHT22;64127;51.488;5.462;2023-04-03T09:27:00;11.40;72.40
75430;DHT22;64127;51.488;5.462;2023-04-03T09:29:40;11.50;70.50
75430;DHT22;64127;51.488;5.462;2023-04-03T09:32:28;11.60;71.50
75430;DHT22;64127;51.488;5.462;2023-04-03T09:38:17;11.70;72.10
75430;DHT22;64127;51.488;5.462;2023-04-03T09:41:13;11.80;71.00
75430;DHT22;64127;51.488;5.462;2023-04-03T09:43:53;11.70;70.80
75430;DHT22;64127;51.488;5.462;2023-04-03T09:49:04;11.70;69.80
75430;DHT22;64127;51.488;5.462;2023-04-03T09:51:40;11.70;70.50
75430;DHT22;64127;51.488;5.462;2023-04-03T09:54:32;11.70;69.60
75430;DHT22;64127;51.488;5.462;2023-04-03T09:57:13;11.80;67.60
75430;DHT22;64127;51.488;5.462;2023-04-03T09:59:58;11.90;67.60
75430;DHT22;64127;51.488;5.462;2023-04-03T10:02:39;11.90;66.40
75430;DHT22;64127;51.488;5.462;2023-04-03T10:10:47;12.00;64.60
75430;DHT22;64127;51.488;5.462;2023-04-03T10:13:39;12.00;63.70
75430;DHT22;64127;51.488;5.462;2023-04-03T10:19:50;12.00;62.40
75430;DHT22;64127;51.488;5.462;2023-04-03T10:25:27;12.10;62.80
75430;DHT22;64127;51.488;5.462;2023-04-03T10:28:08;12.20;62.50
75430;DHT22;64127;51.488;5.462;2023-04-03T10:31:01;12.20;62.10
75430;DHT22;64127;51.488;5.462;2023-04-03T10:55:27;12.90;59.20
75430;DHT22;64127;51.488;5.462;2023-04-03T10:58:24;13.00;59.10
75430;DHT22;64127;51.488;5.462;2023-04-03T11:01:13;13.10;58.40
75430;DHT22;64127;51.488;5.462;2023-04-03T11:03:53;13.10;58.00
75430;DHT22;64127;51.488;5.462;2023-04-03T11:06:35;13.20;58.00
75430;DHT22;64127;51.488;5.462;2023-04-03T11:09:31;13.30;57.20
75430;DHT22;64127;51.488;5.462;2023-04-03T11:12:41;13.40;50.60
75430;DHT22;64127;51.488;5.462;2023-04-03T11:15:19;13.50;51.50
75430;DHT22;64127;51.488;5.462;2023-04-03T11:18:19;13.60;52.60
75430;DHT22;64127;51.488;5.462;2023-04-03T11:21:31;13.60;52.70
75430;DHT22;64127;51.488;5.462;2023-04-03T11:24:17;13.60;52.80
75430;DHT22;64127;51.488;5.462;2023-04-03T11:26:55;13.60;53.00
75430;DHT22;64127;51.488;5.462;2023-04-03T11:29:32;13.70;53.10
75430;DHT22;64127;51.488;5.462;2023-04-03T11:32:31;13.70;52.80
75430;DHT22;64127;51.488;5.462;2023-04-03T11:35:19;13.70;52.00
75430;DHT22;64127;51.488;5.462;2023-04-03T11:37:53;13.70;51.80
75430;DHT22;64127;51.488;5.462;2023-04-03T11:40:29;13.70;50.80
75430;DHT22;64127;51.488;5.462;2023-04-03T11:46:01;13.50;49.90
75430;DHT22;64127;51.488;5.462;2023-04-03T11:53:48;13.40;49.40
75430;DHT22;64127;51.488;5.462;2023-04-03T12:01:57;13.40;49.10
75430;DHT22;64127;51.488;5.462;2023-04-03T12:04:30;13.40;49.10
75430;DHT22;64127;51.488;5.462;2023-04-03T12:07:18;13.40;49.10
75430;DHT22;64127;51.488;5.462;2023-04-03T12:09:57;13.40;48.60
75430;DHT22;64127;51.488;5.462;2023-04-03T12:12:33;13.40;48.70
75430;DHT22;64127;51.488;5.462;2023-04-03T12:15:23;13.40;48.80
75430;DHT22;64127;51.488;5.462;2023-04-03T12:27:14;13.60;48.70
75430;DHT22;64127;51.488;5.462;2023-04-03T12:30:20;13.70;48.60
75430;DHT22;64127;51.488;5.462;2023-04-03T12:33:12;13.70;48.40
75430;DHT22;64127;51.488;5.462;2023-04-03T12:36:30;13.70;48.20
75430;DHT22;64127;51.488;5.462;2023-04-03T12:42:29;13.70;47.70
75430;DHT22;64127;51.488;5.462;2023-04-03T12:45:21;13.70;47.90
75430;DHT22;64127;51.488;5.462;2023-04-03T12:47:56;13.70;47.70
75430;DHT22;64127;51.488;5.462;2023-04-03T12:50:30;13.70;47.90
75430;DHT22;64127;51.488;5.462;2023-04-03T12:53:22;13.80;48.10
75430;DHT22;64127;51.488;5.462;2023-04-03T12:56:19;13.80;47.70
75430;DHT22;64127;51.488;5.462;2023-04-03T12:59:24;13.90;47.70
75430;DHT22;64127;51.488;5.462;2023-04-03T13:01:59;13.80;47.80
75430;DHT22;64127;51.488;5.462;2023-04-03T13:04:32;13.70;48.10
75430;DHT22;64127;51.488;5.462;2023-04-03T13:07:04;13.70;48.40
75430;DHT22;64127;51.488;5.462;2023-04-03T13:09:37;13.80;48.50
75430;DHT22;64127;51.488;5.462;2023-04-03T13:12:14;13.80;48.50
75430;DHT22;64127;51.488;5.462;2023-04-03T13:14:56;13.90;48.50
75430;DHT22;64127;51.488;5.462;2023-04-03T13:17:31;13.90;48.40
75430;DHT22;64127;51.488;5.462;2023-04-03T13:20:27;13.90;48.40
75430;DHT22;64127;51.488;5.462;2023-04-03T13:23:05;13.90;48.20
75430;DHT22;64127;51.488;5.462;2023-04-03T13:25:42;13.90;48.30
75430;DHT22;64127;51.488;5.462;2023-04-03T13:28:22;13.80;48.30
75430;DHT22;64127;51.488;5.462;2023-04-03T13:34:06;14.00;48.50
75430;DHT22;64127;51.488;5.462;2023-04-03T13:39:28;14.00;48.90
75430;DHT22;64127;51.488;5.462;2023-04-03T13:42:22;14.10;49.00
75430;DHT22;64127;51.488;5.462;2023-04-03T13:48:18;14.20;49.00
75430;DHT22;64127;51.488;5.462;2023-04-03T13:51:02;14.20;48.80
75430;DHT22;64127;51.488;5.462;2023-04-03T13:53:44;14.10;48.70
75430;DHT22;64127;51.488;5.462;2023-04-03T13:56:34;14.10;48.90
75430;DHT22;64127;51.488;5.462;2023-04-03T14:07:17;14.30;48.80
75430;DHT22;64127;51.488;5.462;2023-04-03T14:09:52;14.20;48.80
75430;DHT22;64127;51.488;5.462;2023-04-03T14:12:33;14.30;49.10
75430;DHT22;64127;51.488;5.462;2023-04-03T14:15:22;14.30;48.70
75430;DHT22;64127;51.488;5.462;2023-04-03T14:17:56;14.20;48.60
75430;DHT22;64127;51.488;5.462;2023-04-03T14:20:31;14.20;49.00
75430;DHT22;64127;51.488;5.462;2023-04-03T14:23:03;14.20;49.00
75430;DHT22;64127;51.488;5.462;2023-04-03T14:25:36;14.20;49.00
75430;DHT22;64127;51.488;5.462;2023-04-03T14:28:18;14.20;49.10
75430;DHT22;64127;51.488;5.462;2023-04-03T14:30:52;14.20;49.90
75430;DHT22;64127;51.488;5.462;2023-04-03T14:33:24;14.30;49.30
75430;DHT22;64127;51.488;5.462;2023-04-03T14:35:59;14.20;49.20
75430;DHT22;64127;51.488;5.462;2023-04-03T14:38:33;14.20;49.40
75430;DHT22;64127;51.488;5.462;2023-04-03T14:41:07;14.10;49.30
75430;DHT22;64127;51.488;5.462;2023-04-03T14:43:48;14.10;49.40
75430;DHT22;64127;51.488;5.462;2023-04-03T14:46:26;14.10;49.00
75430;DHT22;64127;51.488;5.462;2023-04-03T14:49:22;14.10;49.10
75430;DHT22;64127;51.488;5.462;2023-04-03T14:51:58;14.10;49.20
75430;DHT22;64127;51.488;5.462;2023-04-03T14:54:31;14.10;49.40
75430;DHT22;64127;51.488;5.462;2023-04-03T14:57:08;14.20;49.40
75430;DHT22;64127;51.488;5.462;2023-04-03T14:59:46;14.30;49.10
75430;DHT22;64127;51.488;5.462;2023-04-03T15:05:06;14.30;48.70
75430;DHT22;64127;51.488;5.462;2023-04-03T15:07:49;14.20;48.80
75430;DHT22;64127;51.488;5.462;2023-04-03T15:10:28;14.20;49.00
75430;DHT22;64127;51.488;5.462;2023-04-03T15:13:01;14.20;48.90
75430;DHT22;64127;51.488;5.462;2023-04-03T15:15:34;14.20;48.80
75430;DHT22;64127;51.488;5.462;2023-04-03T15:18:14;14.20;48.70
75430;DHT22;64127;51.488;5.462;2023-04-03T15:20:49;14.10;48.70
75430;DHT22;64127;51.488;5.462;2023-04-03T15:23:21;14.10;48.80
75430;DHT22;64127;51.488;5.462;2023-04-03T15:25:58;14.00;48.90
75430;DHT22;64127;51.488;5.462;2023-04-03T15:28:37;14.10;49.00
75430;DHT22;64127;51.488;5.462;2023-04-03T15:31:11;14.10;48.90
75430;DHT22;64127;51.488;5.462;2023-04-03T15:33:44;14.10;48.70
75430;DHT22;64127;51.488;5.462;2023-04-03T15:36:16;14.10;48.70
75430;DHT22;64127;51.488;5.462;2023-04-03T15:38:53;14.10;48.80
75430;DHT22;64127;51.488;5.462;2023-04-03T15:41:25;14.10;48.90
75430;DHT22;64127;51.488;5.462;2023-04-03T15:43:57;14.20;49.10
75430;DHT22;64127;51.488;5.462;2023-04-03T15:46:29;14.30;49.40
75430;DHT22;64127;51.488;5.462;2023-04-03T15:49:01;14.30;49.40
75430;DHT22;64127;51.488;5.462;2023-04-03T15:51:33;14.40;49.20
75430;DHT22;64127;51.488;5.462;2023-04-03T15:54:08;14.30;49.10
75430;DHT22;64127;51.488;5.462;2023-04-03T15:56:41;14.30;49.10
75430;DHT22;64127;51.488;5.462;2023-04-03T15:59:13;14.20;49.00
75430;DHT22;64127;51.488;5.462;2023-04-03T16:01:45;14.10;49.00
75430;DHT22;64127;51.488;5.462;2023-04-03T16:04:18;14.00;49.10
75430;DHT22;64127;51.488;5.462;2023-04-03T16:06:52;14.00;49.00
75430;DHT22;64127;51.488;5.462;2023-04-03T16:09:24;13.90;49.30
75430;DHT22;64127;51.488;5.462;2023-04-03T16:11:56;13.80;49.40
75430;DHT22;64127;51.488;5.462;2023-04-03T16:14:28;13.70;49.30
75430;DHT22;64127;51.488;5.462;2023-04-03T16:17:01;13.70;49.30
75430;DHT22;64127;51.488;5.462;2023-04-03T16:19:33;13.70;49.50
75430;DHT22;64127;51.488;5.462;2023-04-03T16:22:05;13.70;50.00
75430;DHT22;64127;51.488;5.462;2023-04-03T16:24:38;13.70;50.00
75430;DHT22;64127;51.488;5.462;2023-04-03T16:27:10;13.70;49.70
75430;DHT22;64127;51.488;5.462;2023-04-03T16:29:42;13.60;49.60
75430;DHT22;64127;51.488;5.462;2023-04-03T16:32:14;13.60;49.70
75430;DHT22;64127;51.488;5.462;2023-04-03T16:34:48;13.50;49.70
75430;DHT22;64127;51.488;5.462;2023-04-03T16:37:20;13.50;49.70
75430;DHT22;64127;51.488;5.462;2023-04-03T16:39:52;13.60;49.90
75430;DHT22;64127;51.488;5.462;2023-04-03T16:42:25;13.60;50.10
75430;DHT22;64127;51.488;5.462;2023-04-03T16:44:57;13.60;50.20
75430;DHT22;64127;51.488;5.462;2023-04-03T16:47:31;13.60;50.40
75430;DHT22;64127;51.488;5.462;2023-04-03T16:50:04;13.60;50.40
75430;DHT22;64127;51.488;5.462;2023-04-03T16:52:36;13.50;50.40
75430;DHT22;64127;51.488;5.462;2023-04-03T16:55:09;13.40;50.40
75430;DHT22;64127;51.488;5.462;2023-04-03T16:57:42;13.50;50.70
75430;DHT22;64127;51.488;5.462;2023-04-03T17:00:14;13.50;50.60
75430;DHT22;64127;51.488;5.462;2023-04-03T17:02:47;13.40;50.30
75430;DHT22;64127;51.488;5.462;2023-04-03T17:05:19;13.40;50.50
75430;DHT22;64127;51.488;5.462;2023-04-03T17:07:51;13.30;50.50
75430;DHT22;64127;51.488;5.462;2023-04-03T17:10:24;13.20;50.40
75430;DHT22;64127;51.488;5.462;2023-04-03T17:12:56;13.10;50.60
75430;DHT22;64127;51.488;5.462;2023-04-03T17:15:28;13.10;50.80
75430;DHT22;64127;51.488;5.462;2023-04-03T17:18:00;13.10;50.70
75430;DHT22;64127;51.488;5.462;2023-04-03T17:20:33;13.10;50.70
75430;DHT22;64127;51.488;5.462;2023-04-03T17:23:05;13.00;50.70
75430;DHT22;64127;51.488;5.462;2023-04-03T17:25:37;12.90;50.80
75430;DHT22;64127;51.488;5.462;2023-04-03T17:28:10;12.80;50.80
75430;DHT22;64127;51.488;5.462;2023-04-03T17:30:42;12.80;50.60
75430;DHT22;64127;51.488;5.462;2023-04-03T17:33:14;12.70;50.60
75430;DHT22;64127;51.488;5.462;2023-04-03T17:35:46;12.60;50.60
75430;DHT22;64127;51.488;5.462;2023-04-03T17:38:18;12.40;50.70
75430;DHT22;64127;51.488;5.462;2023-04-03T17:40:50;12.30;50.90
75430;DHT22;64127;51.488;5.462;2023-04-03T17:43:22;12.10;51.10
75430;DHT22;64127;51.488;5.462;2023-04-03T17:46:02;11.90;51.30
75430;DHT22;64127;51.488;5.462;2023-04-03T17:48:39;11.70;51.40
75430;DHT22;64127;51.488;5.462;2023-04-03T17:51:14;11.60;51.60
75430;DHT22;64127;51.488;5.462;2023-04-03T17:53:49;11.40;51.70
75430;DHT22;64127;51.488;5.462;2023-04-03T17:56:25;11.30;51.90
75430;DHT22;64127;51.488;5.462;2023-04-03T17:58:58;11.10;52.00
75430;DHT22;64127;51.488;5.462;2023-04-03T18:01:32;11.00;52.20
75430;DHT22;64127;51.488;5.462;2023-04-03T18:04:06;11.00;52.50
75430;DHT22;64127;51.488;5.462;2023-04-03T18:06:44;10.90;52.70
75430;DHT22;64127;51.488;5.462;2023-04-03T18:09:20;10.80;52.90
75430;DHT22;64127;51.488;5.462;2023-04-03T18:11:56;10.70;52.90
75430;DHT22;64127;51.488;5.462;2023-04-03T18:14:29;10.70;53.40
75430;DHT22;64127;51.488;5.462;2023-04-03T18:17:04;10.60;53.60
75430;DHT22;64127;51.488;5.462;2023-04-03T18:19:36;10.60;53.90
75430;DHT22;64127;51.488;5.462;2023-04-03T18:22:12;10.50;54.00
75430;DHT22;64127;51.488;5.462;2023-04-03T18:24:49;10.50;54.20